sensor_id;sensor_type;location;lat;lon;timestamp;temperature;humidity
10083;DHT22;5080;48.528;8.078;2023-05-10T00:01:59;16.00;99.90
10083;DHT22;5080;48.528;8.078;2023-05-10T00:04:26;16.10;99.90
10083;DHT22;5080;48.528;8.078;2023-05-10T00:06:53;16.10;99.90
10083;DHT22;5080;48.528;8.078;2023-05-10T00:09:20;16.10;99.90
10083;DHT22;5080;48.528;8.078;2023-05-10T00:11:47;16.10;99.90
10083;DHT22;5080;48.528;8.078;2023-05-10T00:14:14;16.20;99.90
10083;DHT22;5080;48.528;8.078;2023-05-10T00:16:42;16.00;99.90
10083;DHT22;5080;48.528;8.078;2023-05-10T00:19:09;16.10;99.90
10083;DHT22;5080;48.528;8.078;2023-05-10T00:21:35;16.10;99.90
10083;DHT22;5080;48.528;8.078;2023-05-10T00:24:03;16.10;99.90
10083;DHT22;5080;48.528;8.078;2023-05-10T00:26:30;16.00;99.90
10083;DHT22;5080;48.528;8.078;2023-05-10T00:28:56;16.10;99.90
10083;DHT22;5080;48.528;8.078;2023-05-10T00:31:24;16.10;99.90
10083;DHT22;5080;48.528;8.078;2023-05-10T00:33:52;16.10;99.90
10083;DHT22;5080;48.528;8.078;2023-05-10T00:36:19;16.10;99.90
10083;DHT22;5080;48.528;8.078;2023-05-10T00:38:46;16.20;99.90
10083;DHT22;5080;48.528;8.078;2023-05-10T00:41:13;16.20;99.90
10083;DHT22;5080;48.528;8.078;2023-05-10T00:43:39;16.30;99.90
10083;DHT22;5080;48.528;8.078;2023-05-10T00:46:07;16.30;99.90
10083;DHT22;5080;48.528;8.078;2023-05-10T00:48:34;16.40;99.90
10083;DHT22;5080;48.528;8.078;2023-05-10T00:51:03;16.60;99.90
10083;DHT22;5080;48.528;8.078;2023-05-10T00:53:31;16.40;99.90
10083;DHT22;5080;48.528;8.078;2023-05-10T00:55:59;16.40;99.90
10083;DHT22;5080;48.528;8.078;2023-05-10T00:58:25;16.40;99.90
10083;DHT22;5080;48.528;8.078;2023-05-10T01:00:54;16.40;99.90
10083;DHT22;5080;48.528;8.078;2023-05-10T01:03:21;16.40;99.90
10083;DHT22;5080;48.528;8.078;2023-05-10T01:05:48;16.40;99.90
10083;DHT22;5080;48.528;8.078;2023-05-10T01:08:16;16.50;99.90
10083;DHT22;5080;48.528;8.078;2023-05-10T01:10:44;16.50;99.90
10083;DHT22;5080;48.528;8.078;2023-05-10T01:13:12;16.50;99.90
10083;DHT22;5080;48.528;8.078;2023-05-10T01:15:40;16.50;99.90
10083;DHT22;5080;48.528;8.078;2023-05-10T01:18:08;16.50;99.90
10083;DHT22;5080;48.528;8.078;2023-05-10T01:20:40;16.50;99.90
10083;DHT22;5080;48.528;8.078;2023-05-10T01:23:44;16.50;99.90
10083;DHT22;5080;48.528;8.078;2023-05-10T01:26:33;16.40;99.90
10083;DHT22;5080;48.528;8.078;2023-05-10T01:29:14;16.30;99.90
10083;DHT22;5080;48.528;8.078;2023-05-10T01:32:03;16.30;99.90
10083;DHT22;5080;48.528;8.078;2023-05-10T01:34:35;16.20;99.90
10083;DHT22;5080;48.528;8.078;2023-05-10T01:37:09;16.20;99.90
10083;DHT22;5080;48.528;8.078;2023-05-10T01:39:43;16.10;99.90
10083;DHT22;5080;48.528;8.078;2023-05-10T01:42:14;16.10;99.90
10083;DHT22;5080;48.528;8.078;2023-05-10T01:44:46;16.10;99.90
10083;DHT22;5080;48.528;8.078;2023-05-10T01:47:22;16.10;99.90
10083;DHT22;5080;48.528;8.078;2023-05-10T01:49:54;16.10;99.90
10083;DHT22;5080;48.528;8.078;2023-05-10T01:52:26;16.10;99.90
10083;DHT22;5080;48.528;8.078;2023-05-10T01:55:01;16.10;99.90
10083;DHT22;5080;48.528;8.078;2023-05-10T01:57:33;16.10;99.90
10083;DHT22;5080;48.528;8.078;2023-05-10T02:00:02;16.00;99.90
10083;DHT22;5080;48.528;8.078;2023-05-10T02:02:35;16.00;99.90
10083;DHT22;5080;48.528;8.078;2023-05-10T02:05:05;16.00;99.90
10083;DHT22;5080;48.528;8.078;2023-05-10T02:07:35;16.00;99.90
10083;DHT22;5080;48.528;8.078;2023-05-10T02:10:03;15.90;99.90
10083;DHT22;5080;48.528;8.078;2023-05-10T02:12:32;15.90;99.90
10083;DHT22;5080;48.528;8.078;2023-05-10T02:15:04;15.90;99.90
10083;DHT22;5080;48.528;8.078;2023-05-10T02:17:33;15.90;99.90
10083;DHT22;5080;48.528;8.078;2023-05-10T02:20:01;15.90;99.90
10083;DHT22;5080;48.528;8.078;2023-05-10T02:22:29;15.90;99.90
10083;DHT22;5080;48.528;8.078;2023-05-10T02:24:58;15.80;99.90
10083;DHT22;5080;48.528;8.078;2023-05-10T02:27:26;15.70;99.90
10083;DHT22;5080;48.528;8.078;2023-05-10T02:29:54;15.70;99.90
10083;DHT22;5080;48.528;8.078;2023-05-10T02:32:22;15.70;99.90
10083;DHT22;5080;48.528;8.078;2023-05-10T02:34:52;15.60;99.90
10083;DHT22;5080;48.528;8.078;2023-05-10T02:37:20;15.70;99.90
10083;DHT22;5080;48.528;8.078;2023-05-10T02:39:48;15.70;99.90
10083;DHT22;5080;48.528;8.078;2023-05-10T02:42:17;15.70;99.90
10083;DHT22;5080;48.528;8.078;2023-05-10T02:44:46;15.70;99.90
10083;DHT22;5080;48.528;8.078;2023-05-10T02:47:14;15.70;99.90
10083;DHT22;5080;48.528;8.078;2023-05-10T02:49:41;15.80;99.90
10083;DHT22;5080;48.528;8.078;2023-05-10T02:52:10;15.80;99.90
10083;DHT22;5080;48.528;8.078;2023-05-10T02:54:43;15.80;99.90
10083;DHT22;5080;48.528;8.078;2023-05-10T02:57:14;15.80;99.90
10083;DHT22;5080;48.528;8.078;2023-05-10T02:59:43;15.90;99.90
10083;DHT22;5080;48.528;8.078;2023-05-10T03:02:11;15.80;99.90
10083;DHT22;5080;48.528;8.078;2023-05-10T03:04:38;15.80;99.90
10083;DHT22;5080;48.528;8.078;2023-05-10T03:07:05;15.80;99.90
10083;DHT22;5080;48.528;8.078;2023-05-10T03:09:34;15.80;99.90
10083;DHT22;5080;48.528;8.078;2023-05-10T03:12:04;15.90;99.90
10083;DHT22;5080;48.528;8.078;2023-05-10T03:14:42;15.90;99.90
10083;DHT22;5080;48.528;8.078;2023-05-10T03:17:19;15.90;99.90
10083;DHT22;5080;48.528;8.078;2023-05-10T03:19:53;15.90;99.90
10083;DHT22;5080;48.528;8.078;2023-05-10T03:22:24;15.80;99.90
10083;DHT22;5080;48.528;8.078;2023-05-10T03:24:54;15.80;99.90
10083;DHT22;5080;48.528;8.078;2023-05-10T03:27:22;15.80;99.90
10083;DHT22;5080;48.528;8.078;2023-05-10T03:29:51;15.80;99.90
10083;DHT22;5080;48.528;8.078;2023-05-10T03:32:19;15.70;99.90
10083;DHT22;5080;48.528;8.078;2023-05-10T03:34:45;15.70;99.90
10083;DHT22;5080;48.528;8.078;2023-05-10T03:37:12;15.80;99.90
10083;DHT22;5080;48.528;8.078;2023-05-10T03:39:39;15.70;99.90
10083;DHT22;5080;48.528;8.078;2023-05-10T03:42:07;15.80;99.90
10083;DHT22;5080;48.528;8.078;2023-05-10T03:44:37;15.70;99.90
10083;DHT22;5080;48.528;8.078;2023-05-10T03:47:04;15.70;99.90
10083;DHT22;5080;48.528;8.078;2023-05-10T03:49:31;15.70;99.90
10083;DHT22;5080;48.528;8.078;2023-05-10T03:51:57;15.70;99.90
10083;DHT22;5080;48.528;8.078;2023-05-10T03:54:24;15.60;99.90
10083;DHT22;5080;48.528;8.078;2023-05-10T03:56:51;15.60;99.90
10083;DHT22;5080;48.528;8.078;2023-05-10T03:59:19;15.50;99.90
10083;DHT22;5080;48.528;8.078;2023-05-10T04:01:46;15.40;99.90
10083;DHT22;5080;48.528;8.078;2023-05-10T04:04:13;15.40;99.90
10083;DHT22;5080;48.528;8.078;2023-05-10T04:06:40;15.30;99.90
10083;DHT22;5080;48.528;8.078;2023-05-10T04:09:07;15.30;99.90
10083;DHT22;5080;48.528;8.078;2023-05-10T04:11:33;15.40;99.90
10083;DHT22;5080;48.528;8.078;2023-05-10T04:14:00;15.40;99.90
10083;DHT22;5080;48.528;8.078;2023-05-10T04:16:28;15.40;99.90
10083;DHT22;5080;48.528;8.078;2023-05-10T04:18:55;15.50;99.90
10083;DHT22;5080;48.528;8.078;2023-05-10T04:21:22;15.40;99.90
10083;DHT22;5080;48.528;8.078;2023-05-10T04:23:50;15.40;99.90
10083;DHT22;5080;48.528;8.078;2023-05-10T04:26:16;15.50;99.90
10083;DHT22;5080;48.528;8.078;2023-05-10T04:28:43;15.40;99.90
10083;DHT22;5080;48.528;8.078;2023-05-10T04:31:10;15.40;99.90
10083;DHT22;5080;48.528;8.078;2023-05-10T04:33:39;15.40;99.90
10083;DHT22;5080;48.528;8.078;2023-05-10T04:36:06;15.40;99.90
10083;DHT22;5080;48.528;8.078;2023-05-10T04:38:33;15.50;99.90
10083;DHT22;5080;48.528;8.078;2023-05-10T04:41:06;15.50;99.90
10083;DHT22;5080;48.528;8.078;2023-05-10T04:43:33;15.50;99.90
10083;DHT22;5080;48.528;8.078;2023-05-10T04:46:00;15.50;99.90
10083;DHT22;5080;48.528;8.078;2023-05-10T04:48:26;15.60;99.90
10083;DHT22;5080;48.528;8.078;2023-05-10T04:50:55;15.70;99.90
10083;DHT22;5080;48.528;8.078;2023-05-10T04:53:22;15.70;99.90
10083;DHT22;5080;48.528;8.078;2023-05-10T04:55:48;15.70;99.90
10083;DHT22;5080;48.528;8.078;2023-05-10T04:58:15;15.80;99.90
10083;DHT22;5080;48.528;8.078;2023-05-10T05:00:42;15.70;99.90
10083;DHT22;5080;48.528;8.078;2023-05-10T05:03:09;15.60;99.90
10083;DHT22;5080;48.528;8.078;2023-05-10T05:05:36;15.50;99.90
10083;DHT22;5080;48.528;8.078;2023-05-10T05:08:04;15.50;99.90
10083;DHT22;5080;48.528;8.078;2023-05-10T05:10:31;15.60;99.90
10083;DHT22;5080;48.528;8.078;2023-05-10T05:12:58;15.60;99.90
10083;DHT22;5080;48.528;8.078;2023-05-10T05:15:25;15.60;99.90
10083;DHT22;5080;48.528;8.078;2023-05-10T05:17:52;15.70;99.90
10083;DHT22;5080;48.528;8.078;2023-05-10T05:20:18;15.60;99.90
10083;DHT22;5080;48.528;8.078;2023-05-10T05:22:45;15.60;99.90
10083;DHT22;5080;48.528;8.078;2023-05-10T05:25:14;15.60;99.90
10083;DHT22;5080;48.528;8.078;2023-05-10T05:27:41;15.40;99.90
10083;DHT22;5080;48.528;8.078;2023-05-10T05:30:09;15.40;99.90
10083;DHT22;5080;48.528;8.078;2023-05-10T05:32:36;15.40;99.90
10083;DHT22;5080;48.528;8.078;2023-05-10T05:35:03;15.40;99.90
10083;DHT22;5080;48.528;8.078;2023-05-10T05:37:30;15.30;99.90
10083;DHT22;5080;48.528;8.078;2023-05-10T05:39:57;15.40;99.90
10083;DHT22;5080;48.528;8.078;2023-05-10T05:42:25;15.50;99.90
10083;DHT22;5080;48.528;8.078;2023-05-10T05:44:52;15.40;99.90
10083;DHT22;5080;48.528;8.078;2023-05-10T05:47:18;15.40;99.90
10083;DHT22;5080;48.528;8.078;2023-05-10T05:49:45;15.40;99.90
10083;DHT22;5080;48.528;8.078;2023-05-10T05:52:12;15.40;99.90
10083;DHT22;5080;48.528;8.078;2023-05-10T05:54:39;15.50;99.90
10083;DHT22;5080;48.528;8.078;2023-05-10T05:57:06;15.60;99.90
10083;DHT22;5080;48.528;8.078;2023-05-10T05:59:34;15.60;99.90
10083;DHT22;5080;48.528;8.078;2023-05-10T06:02:01;15.60;99.90
10083;DHT22;5080;48.528;8.078;2023-05-10T06:04:28;15.60;99.90
10083;DHT22;5080;48.528;8.078;2023-05-10T06:06:55;15.60;99.90
10083;DHT22;5080;48.528;8.078;2023-05-10T06:09:21;15.70;99.90
10083;DHT22;5080;48.528;8.078;2023-05-10T06:11:49;15.70;99.90
10083;DHT22;5080;48.528;8.078;2023-05-10T06:14:16;15.80;99.90
10083;DHT22;5080;48.528;8.078;2023-05-10T06:16:44;15.90;99.90
10083;DHT22;5080;48.528;8.078;2023-05-10T06:19:11;15.80;99.90
10083;DHT22;5080;48.528;8.078;2023-05-10T06:21:39;15.90;99.90
10083;DHT22;5080;48.528;8.078;2023-05-10T06:24:06;15.90;99.90
10083;DHT22;5080;48.528;8.078;2023-05-10T06:26:33;15.90;99.90
10083;DHT22;5080;48.528;8.078;2023-05-10T06:29:00;15.90;99.90
10083;DHT22;5080;48.528;8.078;2023-05-10T06:31:27;15.90;99.90
10083;DHT22;5080;48.528;8.078;2023-05-10T06:33:55;15.90;99.90
10083;DHT22;5080;48.528;8.078;2023-05-10T06:36:23;15.80;99.90
10083;DHT22;5080;48.528;8.078;2023-05-10T06:38:51;15.80;99.90
10083;DHT22;5080;48.528;8.078;2023-05-10T06:41:18;15.70;99.90
10083;DHT22;5080;48.528;8.078;2023-05-10T06:43:45;15.80;99.90
10083;DHT22;5080;48.528;8.078;2023-05-10T06:46:12;15.80;99.90
10083;DHT22;5080;48.528;8.078;2023-05-10T06:48:39;15.80;99.90
10083;DHT22;5080;48.528;8.078;2023-05-10T06:51:08;15.90;99.90
10083;DHT22;5080;48.528;8.078;2023-05-10T06:53:34;15.90;99.90
10083;DHT22;5080;48.528;8.078;2023-05-10T06:56:01;15.90;99.90
10083;DHT22;5080;48.528;8.078;2023-05-10T06:58:29;15.80;99.90
10083;DHT22;5080;48.528;8.078;2023-05-10T07:01:01;15.90;99.90
10083;DHT22;5080;48.528;8.078;2023-05-10T07:03:28;15.90;99.90
10083;DHT22;5080;48.528;8.078;2023-05-10T07:06:00;15.70;99.90
10083;DHT22;5080;48.528;8.078;2023-05-10T07:08:30;15.70;99.90
10083;DHT22;5080;48.528;8.078;2023-05-10T07:11:01;15.70;99.90
10083;DHT22;5080;48.528;8.078;2023-05-10T07:13:29;15.70;99.90
10083;DHT22;5080;48.528;8.078;2023-05-10T07:15:56;15.80;99.90
10083;DHT22;5080;48.528;8.078;2023-05-10T07:18:23;15.80;99.90
10083;DHT22;5080;48.528;8.078;2023-05-10T07:20:50;15.80;99.90
10083;DHT22;5080;48.528;8.078;2023-05-10T07:23:17;15.90;99.90
10083;DHT22;5080;48.528;8.078;2023-05-10T07:25:46;16.00;99.90
10083;DHT22;5080;48.528;8.078;2023-05-10T07:28:13;16.00;99.90
10083;DHT22;5080;48.528;8.078;2023-05-10T07:30:40;16.10;99.90
10083;DHT22;5080;48.528;8.078;2023-05-10T07:33:07;16.10;99.90
10083;DHT22;5080;48.528;8.078;2023-05-10T07:35:34;16.30;99.90
10083;DHT22;5080;48.528;8.078;2023-05-10T07:38:01;16.30;99.90
10083;DHT22;5080;48.528;8.078;2023-05-10T07:40:28;16.40;99.90
10083;DHT22;5080;48.528;8.078;2023-05-10T07:42:57;16.40;99.90
10083;DHT22;5080;48.528;8.078;2023-05-10T07:45:25;16.50;99.90
10083;DHT22;5080;48.528;8.078;2023-05-10T07:47:52;16.60;99.90
10083;DHT22;5080;48.528;8.078;2023-05-10T07:50:19;16.60;99.90
10083;DHT22;5080;48.528;8.078;2023-05-10T07:52:46;16.60;99.90
10083;DHT22;5080;48.528;8.078;2023-05-10T07:55:13;16.70;99.90
10083;DHT22;5080;48.528;8.078;2023-05-10T07:57:40;16.80;99.90
10083;DHT22;5080;48.528;8.078;2023-05-10T08:00:15;16.80;99.90
10083;DHT22;5080;48.528;8.078;2023-05-10T08:02:43;16.90;99.90
10083;DHT22;5080;48.528;8.078;2023-05-10T08:05:09;16.90;99.90
10083;DHT22;5080;48.528;8.078;2023-05-10T08:07:36;16.80;99.90
10083;DHT22;5080;48.528;8.078;2023-05-10T08:10:05;16.90;99.90
10083;DHT22;5080;48.528;8.078;2023-05-10T08:12:32;17.00;99.90
10083;DHT22;5080;48.528;8.078;2023-05-10T08:14:59;17.00;99.90
10083;DHT22;5080;48.528;8.078;2023-05-10T08:17:27;17.00;99.90
10083;DHT22;5080;48.528;8.078;2023-05-10T08:19:54;16.90;99.90
10083;DHT22;5080;48.528;8.078;2023-05-10T08:22:21;16.90;99.90
10083;DHT22;5080;48.528;8.078;2023-05-10T08:24:47;16.90;99.90
10083;DHT22;5080;48.528;8.078;2023-05-10T08:27:14;16.90;99.90
10083;DHT22;5080;48.528;8.078;2023-05-10T08:29:41;17.00;99.90
10083;DHT22;5080;48.528;8.078;2023-05-10T08:32:08;17.20;99.90
10083;DHT22;5080;48.528;8.078;2023-05-10T08:34:36;17.30;99.90
10083;DHT22;5080;48.528;8.078;2023-05-10T08:37:03;17.40;99.90
10083;DHT22;5080;48.528;8.078;2023-05-10T08:39:34;17.40;99.90
10083;DHT22;5080;48.528;8.078;2023-05-10T08:42:03;17.40;99.90
10083;DHT22;5080;48.528;8.078;2023-05-10T08:44:31;17.20;99.90
10083;DHT22;5080;48.528;8.078;2023-05-10T08:46:59;17.20;99.90
10083;DHT22;5080;48.528;8.078;2023-05-10T08:49:31;17.00;99.90
10083;DHT22;5080;48.528;8.078;2023-05-10T08:52:02;16.80;99.90
10083;DHT22;5080;48.528;8.078;2023-05-10T08:54:30;16.70;99.90
10083;DHT22;5080;48.528;8.078;2023-05-10T08:56:57;16.30;99.90
10083;DHT22;5080;48.528;8.078;2023-05-10T08:59:24;16.00;99.90
10083;DHT22;5080;48.528;8.078;2023-05-10T09:01:52;15.50;99.90
10083;DHT22;5080;48.528;8.078;2023-05-10T09:04:21;15.20;99.90
10083;DHT22;5080;48.528;8.078;2023-05-10T09:06:48;15.00;99.90
10083;DHT22;5080;48.528;8.078;2023-05-10T09:09:17;14.90;99.90
10083;DHT22;5080;48.528;8.078;2023-05-10T09:11:44;15.10;99.90
10083;DHT22;5080;48.528;8.078;2023-05-10T09:14:12;15.30;99.90
10083;DHT22;5080;48.528;8.078;2023-05-10T09:16:40;15.30;99.90
10083;DHT22;5080;48.528;8.078;2023-05-10T09:19:07;15.30;99.90
10083;DHT22;5080;48.528;8.078;2023-05-10T09:21:35;15.40;99.90
10083;DHT22;5080;48.528;8.078;2023-05-10T09:24:04;15.60;99.90
10083;DHT22;5080;48.528;8.078;2023-05-10T09:26:32;15.70;99.90
10083;DHT22;5080;48.528;8.078;2023-05-10T09:29:01;15.80;99.90
10083;DHT22;5080;48.528;8.078;2023-05-10T09:31:44;16.00;99.90
10083;DHT22;5080;48.528;8.078;2023-05-10T09:34:15;16.30;99.90
10083;DHT22;5080;48.528;8.078;2023-05-10T09:36:54;16.40;99.90
10083;DHT22;5080;48.528;8.078;2023-05-10T09:39:30;16.40;99.90
10083;DHT22;5080;48.528;8.078;2023-05-10T09:41:59;16.50;99.90
10083;DHT22;5080;48.528;8.078;2023-05-10T09:44:27;16.50;99.90
10083;DHT22;5080;48.528;8.078;2023-05-10T09:46:53;16.50;99.90
10083;DHT22;5080;48.528;8.078;2023-05-10T09:49:20;16.50;99.90
10083;DHT22;5080;48.528;8.078;2023-05-10T09:51:47;16.50;99.90
10083;DHT22;5080;48.528;8.078;2023-05-10T09:54:23;16.50;99.90
10083;DHT22;5080;48.528;8.078;2023-05-10T09:56:50;16.50;99.90
10083;DHT22;5080;48.528;8.078;2023-05-10T09:59:18;16.30;99.90
10083;DHT22;5080;48.528;8.078;2023-05-10T10:01:49;16.20;99.90
10083;DHT22;5080;48.528;8.078;2023-05-10T10:04:17;16.10;99.90
10083;DHT22;5080;48.528;8.078;2023-05-10T10:06:43;16.00;99.90
10083;DHT22;5080;48.528;8.078;2023-05-10T10:09:10;16.00;99.90
10083;DHT22;5080;48.528;8.078;2023-05-10T10:11:38;15.90;99.90
10083;DHT22;5080;48.528;8.078;2023-05-10T10:14:06;15.80;99.90
10083;DHT22;5080;48.528;8.078;2023-05-10T10:16:34;15.70;99.90
10083;DHT22;5080;48.528;8.078;2023-05-10T10:19:02;15.70;99.90
10083;DHT22;5080;48.528;8.078;2023-05-10T10:21:28;15.70;99.90
10083;DHT22;5080;48.528;8.078;2023-05-10T10:23:56;15.70;99.90
10083;DHT22;5080;48.528;8.078;2023-05-10T10:26:23;15.70;99.90
10083;DHT22;5080;48.528;8.078;2023-05-10T10:28:57;15.70;99.90
10083;DHT22;5080;48.528;8.078;2023-05-10T10:31:34;15.80;99.90
10083;DHT22;5080;48.528;8.078;2023-05-10T10:34:06;15.80;99.90
10083;DHT22;5080;48.528;8.078;2023-05-10T10:36:39;15.80;99.90
10083;DHT22;5080;48.528;8.078;2023-05-10T10:39:09;15.70;99.90
10083;DHT22;5080;48.528;8.078;2023-05-10T10:41:38;15.80;99.90
10083;DHT22;5080;48.528;8.078;2023-05-10T10:44:35;15.80;99.90
10083;DHT22;5080;48.528;8.078;2023-05-10T10:47:22;15.80;99.90
10083;DHT22;5080;48.528;8.078;2023-05-10T10:50:02;15.80;99.90
10083;DHT22;5080;48.528;8.078;2023-05-10T10:52:31;15.70;99.90
10083;DHT22;5080;48.528;8.078;2023-05-10T10:55:01;15.70;99.90
10083;DHT22;5080;48.528;8.078;2023-05-10T10:57:32;15.70;99.90
10083;DHT22;5080;48.528;8.078;2023-05-10T11:00:18;15.70;99.90
10083;DHT22;5080;48.528;8.078;2023-05-10T11:02:46;15.80;99.90
10083;DHT22;5080;48.528;8.078;2023-05-10T11:08:12;15.90;99.90
10083;DHT22;5080;48.528;8.078;2023-05-10T11:10:40;16.10;99.90
10083;DHT22;5080;48.528;8.078;2023-05-10T11:13:09;16.40;99.90
10083;DHT22;5080;48.528;8.078;2023-05-10T11:15:38;16.60;99.90
10083;DHT22;5080;48.528;8.078;2023-05-10T11:18:18;17.00;99.90
10083;DHT22;5080;48.528;8.078;2023-05-10T11:20:50;17.50;99.90
10083;DHT22;5080;48.528;8.078;2023-05-10T11:23:17;17.80;99.90
10083;DHT22;5080;48.528;8.078;2023-05-10T11:25:45;17.90;99.90
10083;DHT22;5080;48.528;8.078;2023-05-10T11:28:12;17.90;99.90
10083;DHT22;5080;48.528;8.078;2023-05-10T11:30:41;17.90;99.90
10083;DHT22;5080;48.528;8.078;2023-05-10T11:33:08;17.80;99.90
10083;DHT22;5080;48.528;8.078;2023-05-10T11:35:39;17.50;99.90
10083;DHT22;5080;48.528;8.078;2023-05-10T11:38:08;17.50;99.90
10083;DHT22;5080;48.528;8.078;2023-05-10T11:40:36;17.80;99.90
10083;DHT22;5080;48.528;8.078;2023-05-10T11:43:04;18.20;99.90
10083;DHT22;5080;48.528;8.078;2023-05-10T11:45:32;18.60;99.90
10083;DHT22;5080;48.528;8.078;2023-05-10T11:48:00;18.90;99.90
10083;DHT22;5080;48.528;8.078;2023-05-10T11:50:28;18.90;99.90
10083;DHT22;5080;48.528;8.078;2023-05-10T11:52:56;18.80;99.90
10083;DHT22;5080;48.528;8.078;2023-05-10T11:55:25;18.60;99.90
10083;DHT22;5080;48.528;8.078;2023-05-10T11:57:53;18.50;99.90
10083;DHT22;5080;48.528;8.078;2023-05-10T12:00:20;18.40;99.90
10083;DHT22;5080;48.528;8.078;2023-05-10T12:02:47;18.20;99.90
10083;DHT22;5080;48.528;8.078;2023-05-10T12:05:15;18.00;99.90
10083;DHT22;5080;48.528;8.078;2023-05-10T12:07:42;18.20;99.90
10083;DHT22;5080;48.528;8.078;2023-05-10T12:10:10;18.30;99.90
10083;DHT22;5080;48.528;8.078;2023-05-10T12:12:42;18.40;99.90
10083;DHT22;5080;48.528;8.078;2023-05-10T12:15:16;18.70;99.90
10083;DHT22;5080;48.528;8.078;2023-05-10T12:17:44;18.80;99.90
10083;DHT22;5080;48.528;8.078;2023-05-10T12:20:14;18.90;99.90
10083;DHT22;5080;48.528;8.078;2023-05-10T12:22:44;19.10;99.90
10083;DHT22;5080;48.528;8.078;2023-05-10T12:25:11;19.10;99.90
10083;DHT22;5080;48.528;8.078;2023-05-10T12:27:38;19.10;99.90
10083;DHT22;5080;48.528;8.078;2023-05-10T12:30:07;19.40;99.90
10083;DHT22;5080;48.528;8.078;2023-05-10T12:32:38;19.70;99.90
10083;DHT22;5080;48.528;8.078;2023-05-10T12:35:06;19.70;99.90
10083;DHT22;5080;48.528;8.078;2023-05-10T12:37:32;19.70;99.90
10083;DHT22;5080;48.528;8.078;2023-05-10T12:40:01;19.50;99.90
10083;DHT22;5080;48.528;8.078;2023-05-10T12:42:30;19.20;99.90
10083;DHT22;5080;48.528;8.078;2023-05-10T12:44:57;19.10;99.90
10083;DHT22;5080;48.528;8.078;2023-05-10T12:47:25;19.00;99.90
10083;DHT22;5080;48.528;8.078;2023-05-10T12:49:52;18.90;99.90
10083;DHT22;5080;48.528;8.078;2023-05-10T12:52:19;18.90;99.90
10083;DHT22;5080;48.528;8.078;2023-05-10T12:54:46;18.90;99.90
10083;DHT22;5080;48.528;8.078;2023-05-10T12:57:13;18.90;99.90
10083;DHT22;5080;48.528;8.078;2023-05-10T12:59:40;19.00;99.90
10083;DHT22;5080;48.528;8.078;2023-05-10T13:02:07;19.20;99.90
10083;DHT22;5080;48.528;8.078;2023-05-10T13:04:35;19.10;99.90
10083;DHT22;5080;48.528;8.078;2023-05-10T13:07:04;19.00;99.90
10083;DHT22;5080;48.528;8.078;2023-05-10T13:09:31;19.00;99.90
10083;DHT22;5080;48.528;8.078;2023-05-10T13:11:58;19.00;99.90
10083;DHT22;5080;48.528;8.078;2023-05-10T13:14:25;19.00;99.90
10083;DHT22;5080;48.528;8.078;2023-05-10T13:16:52;19.00;99.90
10083;DHT22;5080;48.528;8.078;2023-05-10T13:19:19;19.10;99.90
10083;DHT22;5080;48.528;8.078;2023-05-10T13:21:48;19.00;99.90
10083;DHT22;5080;48.528;8.078;2023-05-10T13:24:14;19.00;99.90
10083;DHT22;5080;48.528;8.078;2023-05-10T13:26:42;19.00;99.90
10083;DHT22;5080;48.528;8.078;2023-05-10T13:29:09;19.10;99.90
10083;DHT22;5080;48.528;8.078;2023-05-10T13:31:36;19.30;99.90
10083;DHT22;5080;48.528;8.078;2023-05-10T13:34:04;19.40;99.90
10083;DHT22;5080;48.528;8.078;2023-05-10T13:36:31;19.50;99.90
10083;DHT22;5080;48.528;8.078;2023-05-10T13:38:59;19.50;99.90
10083;DHT22;5080;48.528;8.078;2023-05-10T13:41:28;20.00;99.90
10083;DHT22;5080;48.528;8.078;2023-05-10T13:43:54;20.30;99.90
10083;DHT22;5080;48.528;8.078;2023-05-10T13:46:21;20.30;99.90
10083;DHT22;5080;48.528;8.078;2023-05-10T13:48:48;20.40;99.90
10083;DHT22;5080;48.528;8.078;2023-05-10T13:51:15;20.50;99.90
10083;DHT22;5080;48.528;8.078;2023-05-10T13:53:42;20.30;99.90
10083;DHT22;5080;48.528;8.078;2023-05-10T13:56:10;20.20;99.90
10083;DHT22;5080;48.528;8.078;2023-05-10T13:58:37;20.20;99.90
10083;DHT22;5080;48.528;8.078;2023-05-10T14:01:03;20.40;99.90
10083;DHT22;5080;48.528;8.078;2023-05-10T14:03:31;20.70;99.90
10083;DHT22;5080;48.528;8.078;2023-05-10T14:05:58;20.80;99.90
10083;DHT22;5080;48.528;8.078;2023-05-10T14:08:25;20.80;99.90
10083;DHT22;5080;48.528;8.078;2023-05-10T14:10:53;20.50;99.90
10083;DHT22;5080;48.528;8.078;2023-05-10T14:13:23;20.40;99.90
10083;DHT22;5080;48.528;8.078;2023-05-10T14:15:50;20.30;99.90
10083;DHT22;5080;48.528;8.078;2023-05-10T14:18:17;20.00;99.90
10083;DHT22;5080;48.528;8.078;2023-05-10T14:20:44;19.80;99.90
10083;DHT22;5080;48.528;8.078;2023-05-10T14:23:10;19.50;99.90
10083;DHT22;5080;48.528;8.078;2023-05-10T14:25:39;19.50;99.90
10083;DHT22;5080;48.528;8.078;2023-05-10T14:28:06;19.50;99.90
10083;DHT22;5080;48.528;8.078;2023-05-10T14:30:34;19.50;99.90
10083;DHT22;5080;48.528;8.078;2023-05-10T14:33:02;19.60;99.90
10083;DHT22;5080;48.528;8.078;2023-05-10T14:35:29;19.80;99.90
10083;DHT22;5080;48.528;8.078;2023-05-10T14:37:57;19.70;99.90
10083;DHT22;5080;48.528;8.078;2023-05-10T14:40:24;19.70;99.90
10083;DHT22;5080;48.528;8.078;2023-05-10T14:42:51;19.60;99.90
10083;DHT22;5080;48.528;8.078;2023-05-10T14:45:19;19.70;99.90
10083;DHT22;5080;48.528;8.078;2023-05-10T14:47:48;19.60;99.90
10083;DHT22;5080;48.528;8.078;2023-05-10T14:50:15;19.70;99.90
10083;DHT22;5080;48.528;8.078;2023-05-10T14:52:43;19.70;99.90
10083;DHT22;5080;48.528;8.078;2023-05-10T14:55:10;19.50;99.90
10083;DHT22;5080;48.528;8.078;2023-05-10T14:57:37;19.10;99.90
10083;DHT22;5080;48.528;8.078;2023-05-10T15:00:05;19.00;99.90
10083;DHT22;5080;48.528;8.078;2023-05-10T15:02:32;18.90;99.90
10083;DHT22;5080;48.528;8.078;2023-05-10T15:05:00;18.70;99.90
10083;DHT22;5080;48.528;8.078;2023-05-10T15:07:27;18.50;99.90
10083;DHT22;5080;48.528;8.078;2023-05-10T15:09:53;18.40;99.90
10083;DHT22;5080;48.528;8.078;2023-05-10T15:12:20;18.20;99.90
10083;DHT22;5080;48.528;8.078;2023-05-10T15:14:47;18.10;99.90
10083;DHT22;5080;48.528;8.078;2023-05-10T15:17:14;17.90;99.90
10083;DHT22;5080;48.528;8.078;2023-05-10T15:19:41;17.80;99.90
10083;DHT22;5080;48.528;8.078;2023-05-10T15:22:10;17.80;99.90
10083;DHT22;5080;48.528;8.078;2023-05-10T15:24:36;17.50;99.90
10083;DHT22;5080;48.528;8.078;2023-05-10T15:27:03;17.30;99.90
10083;DHT22;5080;48.528;8.078;2023-05-10T15:29:30;17.00;99.90
10083;DHT22;5080;48.528;8.078;2023-05-10T15:31:58;16.80;99.90
10083;DHT22;5080;48.528;8.078;2023-05-10T15:34:24;16.40;99.90
10083;DHT22;5080;48.528;8.078;2023-05-10T15:36:51;16.10;99.90
10083;DHT22;5080;48.528;8.078;2023-05-10T15:39:20;16.10;99.90
10083;DHT22;5080;48.528;8.078;2023-05-10T15:41:47;16.30;99.90
10083;DHT22;5080;48.528;8.078;2023-05-10T15:44:14;16.30;99.90
10083;DHT22;5080;48.528;8.078;2023-05-10T15:46:42;16.40;99.90
10083;DHT22;5080;48.528;8.078;2023-05-10T15:49:08;16.50;99.90
10083;DHT22;5080;48.528;8.078;2023-05-10T15:51:35;16.60;99.90
10083;DHT22;5080;48.528;8.078;2023-05-10T15:54:02;16.70;99.90
10083;DHT22;5080;48.528;8.078;2023-05-10T15:56:33;16.80;99.90